sensor_id;sensor_type;location;lat;lon;timestamp;temperature;humidity
69543;SHT31;56762;49.494;11.768;2022-09-11T00:01:08;14.89;90.31
69543;SHT31;56762;49.494;11.768;2022-09-11T00:03:37;14.87;90.37
69543;SHT31;56762;49.494;11.768;2022-09-11T00:06:09;14.93;90.05
69543;SHT31;56762;49.494;11.768;2022-09-11T00:08:39;14.93;89.85
69543;SHT31;56762;49.494;11.768;2022-09-11T00:11:08;14.91;90.28
69543;SHT31;56762;49.494;11.768;2022-09-11T00:13:39;14.94;89.52
69543;SHT31;56762;49.494;11.768;2022-09-11T00:16:17;14.93;89.52
69543;SHT31;56762;49.494;11.768;2022-09-11T00:18:45;14.90;90.14
69543;SHT31;56762;49.494;11.768;2022-09-11T00:21:15;14.90;89.70
69543;SHT31;56762;49.494;11.768;2022-09-11T00:23:44;14.93;89.47
69543;SHT31;56762;49.494;11.768;2022-09-11T00:26:13;14.90;89.64
69543;SHT31;56762;49.494;11.768;2022-09-11T00:28:43;14.86;89.75
69543;SHT31;56762;49.494;11.768;2022-09-11T00:31:14;14.87;89.81
69543;SHT31;56762;49.494;11.768;2022-09-11T00:33:42;14.87;89.79
69543;SHT31;56762;49.494;11.768;2022-09-11T00:36:13;14.87;90.02
69543;SHT31;56762;49.494;11.768;2022-09-11T00:38:41;14.86;90.03
69543;SHT31;56762;49.494;11.768;2022-09-11T00:41:13;14.86;89.83
69543;SHT31;56762;49.494;11.768;2022-09-11T00:43:52;14.84;89.97
69543;SHT31;56762;49.494;11.768;2022-09-11T00:46:21;14.86;90.42
69543;SHT31;56762;49.494;11.768;2022-09-11T00:48:53;14.90;89.70
69543;SHT31;56762;49.494;11.768;2022-09-11T00:51:25;14.87;89.42
69543;SHT31;56762;49.494;11.768;2022-09-11T00:53:55;14.84;89.66
69543;SHT31;56762;49.494;11.768;2022-09-11T00:56:27;14.84;89.88
69543;SHT31;56762;49.494;11.768;2022-09-11T00:58:58;14.79;90.16
69543;SHT31;56762;49.494;11.768;2022-09-11T01:01:26;14.80;90.29
69543;SHT31;56762;49.494;11.768;2022-09-11T01:03:54;14.81;90.34
69543;SHT31;56762;49.494;11.768;2022-09-11T01:06:23;14.83;90.41
69543;SHT31;56762;49.494;11.768;2022-09-11T01:08:51;14.84;90.67
69543;SHT31;56762;49.494;11.768;2022-09-11T01:11:29;14.86;90.46
69543;SHT31;56762;49.494;11.768;2022-09-11T01:14:08;14.87;90.31
69543;SHT31;56762;49.494;11.768;2022-09-11T01:16:43;14.86;89.95
69543;SHT31;56762;49.494;11.768;2022-09-11T01:19:26;14.87;90.05
69543;SHT31;56762;49.494;11.768;2022-09-11T01:22:26;14.87;89.83
69543;SHT31;56762;49.494;11.768;2022-09-11T01:25:07;14.89;89.96
69543;SHT31;56762;49.494;11.768;2022-09-11T01:27:41;14.87;89.90
69543;SHT31;56762;49.494;11.768;2022-09-11T01:30:12;14.90;90.33
69543;SHT31;56762;49.494;11.768;2022-09-11T01:32:52;14.89;89.72
69543;SHT31;56762;49.494;11.768;2022-09-11T01:35:29;14.83;89.85
69543;SHT31;56762;49.494;11.768;2022-09-11T01:38:05;14.83;89.80
69543;SHT31;56762;49.494;11.768;2022-09-11T01:40:42;14.81;90.06
69543;SHT31;56762;49.494;11.768;2022-09-11T01:43:15;14.86;89.67
69543;SHT31;56762;49.494;11.768;2022-09-11T01:45:45;14.80;89.55
69543;SHT31;56762;49.494;11.768;2022-09-11T01:48:16;14.79;89.50
69543;SHT31;56762;49.494;11.768;2022-09-11T01:50:46;14.79;89.46
69543;SHT31;56762;49.494;11.768;2022-09-11T01:53:17;14.83;89.95
69543;SHT31;56762;49.494;11.768;2022-09-11T01:55:51;14.83;89.42
69543;SHT31;56762;49.494;11.768;2022-09-11T01:58:26;14.84;89.57
69543;SHT31;56762;49.494;11.768;2022-09-11T02:00:58;14.81;89.55
69543;SHT31;56762;49.494;11.768;2022-09-11T02:03:32;14.83;89.07
69543;SHT31;56762;49.494;11.768;2022-09-11T02:06:05;14.83;89.23
69543;SHT31;56762;49.494;11.768;2022-09-11T02:08:38;14.81;89.20
69543;SHT31;56762;49.494;11.768;2022-09-11T02:11:11;14.80;89.16
69543;SHT31;56762;49.494;11.768;2022-09-11T02:13:45;14.81;89.23
69543;SHT31;56762;49.494;11.768;2022-09-11T02:16:20;14.80;89.40
69543;SHT31;56762;49.494;11.768;2022-09-11T02:18:56;14.80;89.37
69543;SHT31;56762;49.494;11.768;2022-09-11T02:21:25;14.79;89.52
69543;SHT31;56762;49.494;11.768;2022-09-11T02:23:54;14.77;89.68
69543;SHT31;56762;49.494;11.768;2022-09-11T02:26:23;14.81;89.20
69543;SHT31;56762;49.494;11.768;2022-09-11T02:28:53;14.77;89.66
69543;SHT31;56762;49.494;11.768;2022-09-11T02:31:24;14.76;90.02
69543;SHT31;56762;49.494;11.768;2022-09-11T02:33:53;14.77;90.21
69543;SHT31;56762;49.494;11.768;2022-09-11T02:36:39;14.75;89.72
69543;SHT31;56762;49.494;11.768;2022-09-11T02:39:31;14.72;90.05
69543;SHT31;56762;49.494;11.768;2022-09-11T02:42:13;14.75;90.05
69543;SHT31;56762;49.494;11.768;2022-09-11T02:44:50;14.76;90.05
69543;SHT31;56762;49.494;11.768;2022-09-11T02:47:30;14.73;90.56
69543;SHT31;56762;49.494;11.768;2022-09-11T02:50:07;14.75;91.05
69543;SHT31;56762;49.494;11.768;2022-09-11T02:52:45;14.77;90.97
69543;SHT31;56762;49.494;11.768;2022-09-11T02:55:18;14.79;90.07
69543;SHT31;56762;49.494;11.768;2022-09-11T02:57:54;14.80;90.12
69543;SHT31;56762;49.494;11.768;2022-09-11T03:00:25;14.80;90.37
69543;SHT31;56762;49.494;11.768;2022-09-11T03:02:54;14.80;89.77
69543;SHT31;56762;49.494;11.768;2022-09-11T03:05:22;14.81;89.85
69543;SHT31;56762;49.494;11.768;2022-09-11T03:07:49;14.80;89.58
69543;SHT31;56762;49.494;11.768;2022-09-11T03:10:18;14.80;90.48
69543;SHT31;56762;49.494;11.768;2022-09-11T03:12:45;14.79;90.23
69543;SHT31;56762;49.494;11.768;2022-09-11T03:15:13;14.80;90.06
69543;SHT31;56762;49.494;11.768;2022-09-11T03:17:44;14.77;90.22
69543;SHT31;56762;49.494;11.768;2022-09-11T03:20:11;14.77;90.16
69543;SHT31;56762;49.494;11.768;2022-09-11T03:22:39;14.77;89.92
69543;SHT31;56762;49.494;11.768;2022-09-11T03:25:09;14.79;89.96
69543;SHT31;56762;49.494;11.768;2022-09-11T03:27:37;14.80;90.15
69543;SHT31;56762;49.494;11.768;2022-09-11T03:30:06;14.80;90.43
69543;SHT31;56762;49.494;11.768;2022-09-11T03:32:34;14.77;90.48
69543;SHT31;56762;49.494;11.768;2022-09-11T03:35:03;14.79;90.69
69543;SHT31;56762;49.494;11.768;2022-09-11T03:37:31;14.80;90.70
69543;SHT31;56762;49.494;11.768;2022-09-11T03:39:59;14.81;90.99
69543;SHT31;56762;49.494;11.768;2022-09-11T03:42:28;14.81;90.72
69543;SHT31;56762;49.494;11.768;2022-09-11T03:44:58;14.80;90.85
69543;SHT31;56762;49.494;11.768;2022-09-11T03:47:26;14.80;90.96
69543;SHT31;56762;49.494;11.768;2022-09-11T03:49:53;14.81;90.90
69543;SHT31;56762;49.494;11.768;2022-09-11T03:52:22;14.79;90.87
69543;SHT31;56762;49.494;11.768;2022-09-11T03:54:50;14.77;90.99
69543;SHT31;56762;49.494;11.768;2022-09-11T03:57:18;14.76;90.80
69543;SHT31;56762;49.494;11.768;2022-09-11T03:59:46;14.75;91.10
69543;SHT31;56762;49.494;11.768;2022-09-11T04:02:14;14.70;90.91
69543;SHT31;56762;49.494;11.768;2022-09-11T04:04:42;14.69;91.26
69543;SHT31;56762;49.494;11.768;2022-09-11T04:07:10;14.72;91.20
69543;SHT31;56762;49.494;11.768;2022-09-11T04:09:42;14.73;91.06
69543;SHT31;56762;49.494;11.768;2022-09-11T04:12:10;14.69;91.08
69543;SHT31;56762;49.494;11.768;2022-09-11T04:14:38;14.69;91.41
69543;SHT31;56762;49.494;11.768;2022-09-11T04:17:07;14.69;91.65
69543;SHT31;56762;49.494;11.768;2022-09-11T04:19:35;14.65;91.61
69543;SHT31;56762;49.494;11.768;2022-09-11T04:22:03;14.63;91.63
69543;SHT31;56762;49.494;11.768;2022-09-11T04:24:31;14.65;91.58
69543;SHT31;56762;49.494;11.768;2022-09-11T04:27:00;14.66;91.52
69543;SHT31;56762;49.494;11.768;2022-09-11T04:29:28;14.69;91.89
69543;SHT31;56762;49.494;11.768;2022-09-11T04:31:58;14.69;91.66
69543;SHT31;56762;49.494;11.768;2022-09-11T04:34:25;14.69;91.83
69543;SHT31;56762;49.494;11.768;2022-09-11T04:36:53;14.69;91.62
69543;SHT31;56762;49.494;11.768;2022-09-11T04:39:22;14.70;91.70
69543;SHT31;56762;49.494;11.768;2022-09-11T04:41:49;14.69;91.90
69543;SHT31;56762;49.494;11.768;2022-09-11T04:44:19;14.72;91.59
69543;SHT31;56762;49.494;11.768;2022-09-11T04:46:47;14.70;91.59
69543;SHT31;56762;49.494;11.768;2022-09-11T04:49:15;14.70;91.65
69543;SHT31;56762;49.494;11.768;2022-09-11T04:51:43;14.67;92.08
69543;SHT31;56762;49.494;11.768;2022-09-11T04:54:12;14.63;91.88
69543;SHT31;56762;49.494;11.768;2022-09-11T04:56:40;14.65;91.99
69543;SHT31;56762;49.494;11.768;2022-09-11T04:59:11;14.63;91.85
69543;SHT31;56762;49.494;11.768;2022-09-11T05:01:42;14.66;92.02
69543;SHT31;56762;49.494;11.768;2022-09-11T05:04:12;14.62;91.94
69543;SHT31;56762;49.494;11.768;2022-09-11T05:06:40;14.59;92.00
69543;SHT31;56762;49.494;11.768;2022-09-11T05:09:11;14.63;92.01
69543;SHT31;56762;49.494;11.768;2022-09-11T05:11:38;14.66;91.70
69543;SHT31;56762;49.494;11.768;2022-09-11T05:14:06;14.63;91.88
69543;SHT31;56762;49.494;11.768;2022-09-11T05:16:35;14.60;91.74
69543;SHT31;56762;49.494;11.768;2022-09-11T05:19:05;14.59;91.77
69543;SHT31;56762;49.494;11.768;2022-09-11T05:21:34;14.60;91.68
69543;SHT31;56762;49.494;11.768;2022-09-11T05:24:02;14.56;91.68
69543;SHT31;56762;49.494;11.768;2022-09-11T05:26:31;14.56;91.73
69543;SHT31;56762;49.494;11.768;2022-09-11T05:29:01;14.58;91.85
69543;SHT31;56762;49.494;11.768;2022-09-11T05:31:29;14.56;91.90
69543;SHT31;56762;49.494;11.768;2022-09-11T05:33:58;14.60;92.11
69543;SHT31;56762;49.494;11.768;2022-09-11T05:36:27;14.63;92.13
69543;SHT31;56762;49.494;11.768;2022-09-11T05:38:57;14.63;91.96
69543;SHT31;56762;49.494;11.768;2022-09-11T05:41:26;14.65;91.78
69543;SHT31;56762;49.494;11.768;2022-09-11T05:43:54;14.69;91.84
69543;SHT31;56762;49.494;11.768;2022-09-11T05:46:21;14.72;91.99
69543;SHT31;56762;49.494;11.768;2022-09-11T05:48:51;14.77;92.24
69543;SHT31;56762;49.494;11.768;2022-09-11T05:51:20;14.80;92.26
69543;SHT31;56762;49.494;11.768;2022-09-11T05:53:51;14.84;92.25
69543;SHT31;56762;49.494;11.768;2022-09-11T05:56:21;14.89;92.00
69543;SHT31;56762;49.494;11.768;2022-09-11T05:58:49;14.94;91.84
69543;SHT31;56762;49.494;11.768;2022-09-11T06:01:19;14.97;91.86
69543;SHT31;56762;49.494;11.768;2022-09-11T06:03:48;15.00;91.21
69543;SHT31;56762;49.494;11.768;2022-09-11T06:06:18;15.03;91.39
69543;SHT31;56762;49.494;11.768;2022-09-11T06:08:49;15.06;91.28
69543;SHT31;56762;49.494;11.768;2022-09-11T06:11:18;15.08;91.39
69543;SHT31;56762;49.494;11.768;2022-09-11T06:13:47;15.11;90.64
69543;SHT31;56762;49.494;11.768;2022-09-11T06:16:17;15.14;90.69
69543;SHT31;56762;49.494;11.768;2022-09-11T06:18:46;15.12;89.94
69543;SHT31;56762;49.494;11.768;2022-09-11T06:21:16;15.18;90.38
69543;SHT31;56762;49.494;11.768;2022-09-11T06:23:46;15.18;90.43
69543;SHT31;56762;49.494;11.768;2022-09-11T06:26:17;15.23;90.38
69543;SHT31;56762;49.494;11.768;2022-09-11T06:28:46;15.24;90.58
69543;SHT31;56762;49.494;11.768;2022-09-11T06:31:17;15.24;90.74
69543;SHT31;56762;49.494;11.768;2022-09-11T06:33:46;15.23;90.36
69543;SHT31;56762;49.494;11.768;2022-09-11T06:36:16;15.23;90.28
69543;SHT31;56762;49.494;11.768;2022-09-11T06:38:44;15.26;90.41
69543;SHT31;56762;49.494;11.768;2022-09-11T06:41:14;15.27;90.82
69543;SHT31;56762;49.494;11.768;2022-09-11T06:43:43;15.27;90.73
69543;SHT31;56762;49.494;11.768;2022-09-11T06:46:12;15.28;90.64
69543;SHT31;56762;49.494;11.768;2022-09-11T06:48:42;15.27;90.27
69543;SHT31;56762;49.494;11.768;2022-09-11T06:51:11;15.26;89.75
69543;SHT31;56762;49.494;11.768;2022-09-11T06:53:39;15.24;89.98
69543;SHT31;56762;49.494;11.768;2022-09-11T06:56:10;15.27;89.79
69543;SHT31;56762;49.494;11.768;2022-09-11T06:58:39;15.24;90.03
69543;SHT31;56762;49.494;11.768;2022-09-11T07:01:11;15.32;90.08
69543;SHT31;56762;49.494;11.768;2022-09-11T07:03:41;15.35;90.07
69543;SHT31;56762;49.494;11.768;2022-09-11T07:06:10;15.34;89.43
69543;SHT31;56762;49.494;11.768;2022-09-11T07:08:39;15.42;90.10
69543;SHT31;56762;49.494;11.768;2022-09-11T07:11:07;15.49;90.33
69543;SHT31;56762;49.494;11.768;2022-09-11T07:13:37;15.54;90.48
69543;SHT31;56762;49.494;11.768;2022-09-11T07:16:08;15.62;90.37
69543;SHT31;56762;49.494;11.768;2022-09-11T07:18:39;15.68;89.85
69543;SHT31;56762;49.494;11.768;2022-09-11T07:21:09;15.72;89.58
69543;SHT31;56762;49.494;11.768;2022-09-11T07:23:38;15.79;88.70
69543;SHT31;56762;49.494;11.768;2022-09-11T07:26:08;15.81;88.09
69543;SHT31;56762;49.494;11.768;2022-09-11T07:28:36;15.86;87.72
69543;SHT31;56762;49.494;11.768;2022-09-11T07:31:08;15.88;88.35
69543;SHT31;56762;49.494;11.768;2022-09-11T07:33:37;15.93;87.17
69543;SHT31;56762;49.494;11.768;2022-09-11T07:36:07;15.98;86.84
69543;SHT31;56762;49.494;11.768;2022-09-11T07:38:39;15.98;85.22
69543;SHT31;56762;49.494;11.768;2022-09-11T07:41:08;15.98;86.81
69543;SHT31;56762;49.494;11.768;2022-09-11T07:43:37;16.03;85.29
69543;SHT31;56762;49.494;11.768;2022-09-11T07:46:05;16.00;86.19
69543;SHT31;56762;49.494;11.768;2022-09-11T07:48:36;15.96;86.73
69543;SHT31;56762;49.494;11.768;2022-09-11T07:51:06;15.99;85.87
69543;SHT31;56762;49.494;11.768;2022-09-11T07:53:36;16.05;86.74
69543;SHT31;56762;49.494;11.768;2022-09-11T07:56:06;16.02;86.30
69543;SHT31;56762;49.494;11.768;2022-09-11T07:58:35;16.09;85.99
69543;SHT31;56762;49.494;11.768;2022-09-11T08:01:03;16.03;85.30
69543;SHT31;56762;49.494;11.768;2022-09-11T08:03:32;16.00;84.86
69543;SHT31;56762;49.494;11.768;2022-09-11T08:06:03;16.03;85.43
69543;SHT31;56762;49.494;11.768;2022-09-11T08:08:31;16.03;83.42
69543;SHT31;56762;49.494;11.768;2022-09-11T08:11:01;16.03;83.73
69543;SHT31;56762;49.494;11.768;2022-09-11T08:13:29;16.10;83.77
69543;SHT31;56762;49.494;11.768;2022-09-11T08:15:57;16.08;84.30
69543;SHT31;56762;49.494;11.768;2022-09-11T08:18:26;16.12;84.18
69543;SHT31;56762;49.494;11.768;2022-09-11T08:20:59;16.12;84.33
69543;SHT31;56762;49.494;11.768;2022-09-11T08:23:30;16.20;84.19
69543;SHT31;56762;49.494;11.768;2022-09-11T08:26:03;16.29;83.72
69543;SHT31;56762;49.494;11.768;2022-09-11T08:28:32;16.31;84.36
69543;SHT31;56762;49.494;11.768;2022-09-11T08:31:00;16.33;84.09
69543;SHT31;56762;49.494;11.768;2022-09-11T08:33:29;16.37;82.99
69543;SHT31;56762;49.494;11.768;2022-09-11T08:35:59;16.44;82.42
69543;SHT31;56762;49.494;11.768;2022-09-11T08:38:27;16.40;82.65
69543;SHT31;56762;49.494;11.768;2022-09-11T08:40:58;16.40;82.08
69543;SHT31;56762;49.494;11.768;2022-09-11T08:43:30;16.46;82.66
69543;SHT31;56762;49.494;11.768;2022-09-11T08:46:02;16.47;83.03
69543;SHT31;56762;49.494;11.768;2022-09-11T08:48:45;16.56;82.99
69543;SHT31;56762;49.494;11.768;2022-09-11T08:51:15;16.61;82.58
69543;SHT31;56762;49.494;11.768;2022-09-11T08:53:44;16.65;82.74
69543;SHT31;56762;49.494;11.768;2022-09-11T08:56:16;16.75;82.43
69543;SHT31;56762;49.494;11.768;2022-09-11T08:58:55;16.72;82.96
69543;SHT31;56762;49.494;11.768;2022-09-11T09:01:34;16.75;82.94
69543;SHT31;56762;49.494;11.768;2022-09-11T09:04:22;16.78;81.93
69543;SHT31;56762;49.494;11.768;2022-09-11T09:07:02;16.81;82.69
69543;SHT31;56762;49.494;11.768;2022-09-11T09:09:41;16.84;81.70
69543;SHT31;56762;49.494;11.768;2022-09-11T09:12:19;16.91;82.75
69543;SHT31;56762;49.494;11.768;2022-09-11T09:15:28;16.91;80.66
69543;SHT31;56762;49.494;11.768;2022-09-11T09:18:02;16.92;81.53
69543;SHT31;56762;49.494;11.768;2022-09-11T09:20:34;16.98;81.45
69543;SHT31;56762;49.494;11.768;2022-09-11T09:23:06;16.99;80.96
69543;SHT31;56762;49.494;11.768;2022-09-11T09:25:41;17.02;82.11
69543;SHT31;56762;49.494;11.768;2022-09-11T09:28:17;17.11;80.71
69543;SHT31;56762;49.494;11.768;2022-09-11T09:30:50;17.15;81.23
69543;SHT31;56762;49.494;11.768;2022-09-11T09:33:26;17.18;81.09
69543;SHT31;56762;49.494;11.768;2022-09-11T09:35:58;17.19;81.48
69543;SHT31;56762;49.494;11.768;2022-09-11T09:38:29;17.16;81.67
69543;SHT31;56762;49.494;11.768;2022-09-11T09:41:09;17.14;81.10
69543;SHT31;56762;49.494;11.768;2022-09-11T09:43:48;17.19;81.84
69543;SHT31;56762;49.494;11.768;2022-09-11T09:46:22;17.18;81.04
69543;SHT31;56762;49.494;11.768;2022-09-11T09:48:54;17.16;80.52
69543;SHT31;56762;49.494;11.768;2022-09-11T09:51:22;17.20;80.09
69543;SHT31;56762;49.494;11.768;2022-09-11T09:53:53;17.14;79.74
69543;SHT31;56762;49.494;11.768;2022-09-11T09:56:22;17.08;80.23
69543;SHT31;56762;49.494;11.768;2022-09-11T09:58:59;17.04;80.36
69543;SHT31;56762;49.494;11.768;2022-09-11T10:01:47;17.05;79.94
69543;SHT31;56762;49.494;11.768;2022-09-11T10:04:19;17.04;80.23
69543;SHT31;56762;49.494;11.768;2022-09-11T10:06:49;17.04;80.60
69543;SHT31;56762;49.494;11.768;2022-09-11T10:09:24;17.12;80.95
69543;SHT31;56762;49.494;11.768;2022-09-11T10:11:58;17.18;80.94
69543;SHT31;56762;49.494;11.768;2022-09-11T10:14:31;17.25;80.50
69543;SHT31;56762;49.494;11.768;2022-09-11T10:17:22;17.32;79.31
69543;SHT31;56762;49.494;11.768;2022-09-11T10:19:53;17.36;78.94
69543;SHT31;56762;49.494;11.768;2022-09-11T10:22:25;17.28;78.90
69543;SHT31;56762;49.494;11.768;2022-09-11T10:25:09;17.30;79.36
69543;SHT31;56762;49.494;11.768;2022-09-11T10:27:43;17.25;78.36
69543;SHT31;56762;49.494;11.768;2022-09-11T10:30:28;17.20;78.16
69543;SHT31;56762;49.494;11.768;2022-09-11T10:32:57;17.20;79.00
69543;SHT31;56762;49.494;11.768;2022-09-11T10:35:30;17.25;78.47
69543;SHT31;56762;49.494;11.768;2022-09-11T10:38:17;17.35;78.71
69543;SHT31;56762;49.494;11.768;2022-09-11T10:40:57;17.46;78.68
69543;SHT31;56762;49.494;11.768;2022-09-11T10:43:34;17.56;77.77
69543;SHT31;56762;49.494;11.768;2022-09-11T10:46:25;17.65;77.23
69543;SHT31;56762;49.494;11.768;2022-09-11T10:48:56;17.65;76.69
69543;SHT31;56762;49.494;11.768;2022-09-11T10:51:26;17.62;77.78
69543;SHT31;56762;49.494;11.768;2022-09-11T10:54:07;17.57;75.88
69543;SHT31;56762;49.494;11.768;2022-09-11T10:56:45;17.57;76.93
69543;SHT31;56762;49.494;11.768;2022-09-11T10:59:20;17.56;77.81
69543;SHT31;56762;49.494;11.768;2022-09-11T11:01:52;17.59;77.55
69543;SHT31;56762;49.494;11.768;2022-09-11T11:04:22;17.67;76.86
69543;SHT31;56762;49.494;11.768;2022-09-11T11:06:58;17.73;77.60
69543;SHT31;56762;49.494;11.768;2022-09-11T11:09:39;17.83;77.18
69543;SHT31;56762;49.494;11.768;2022-09-11T11:12:26;17.87;77.06
69543;SHT31;56762;49.494;11.768;2022-09-11T11:15:24;17.86;77.15
69543;SHT31;56762;49.494;11.768;2022-09-11T11:18:17;17.94;77.73
69543;SHT31;56762;49.494;11.768;2022-09-11T11:20:53;18.01;75.82
69543;SHT31;56762;49.494;11.768;2022-09-11T11:23:35;18.01;75.58
69543;SHT31;56762;49.494;11.768;2022-09-11T11:26:28;18.00;74.64
69543;SHT31;56762;49.494;11.768;2022-09-11T11:29:11;18.02;75.07
69543;SHT31;56762;49.494;11.768;2022-09-11T11:31:53;18.02;75.29
69543;SHT31;56762;49.494;11.768;2022-09-11T11:34:34;18.10;74.86
69543;SHT31;56762;49.494;11.768;2022-09-11T11:37:09;18.08;75.60
69543;SHT31;56762;49.494;11.768;2022-09-11T11:39:45;18.04;75.87
69543;SHT31;56762;49.494;11.768;2022-09-11T11:42:19;18.04;75.26
69543;SHT31;56762;49.494;11.768;2022-09-11T11:44:51;18.05;75.39
69543;SHT31;56762;49.494;11.768;2022-09-11T11:47:24;18.11;75.06
69543;SHT31;56762;49.494;11.768;2022-09-11T11:50:01;18.18;75.15
69543;SHT31;56762;49.494;11.768;2022-09-11T11:52:39;18.32;74.99
69543;SHT31;56762;49.494;11.768;2022-09-11T11:55:16;18.42;74.27
69543;SHT31;56762;49.494;11.768;2022-09-11T11:57:53;18.52;72.93
69543;SHT31;56762;49.494;11.768;2022-09-11T12:00:23;18.59;72.64
69543;SHT31;56762;49.494;11.768;2022-09-11T12:02:57;18.66;73.60
69543;SHT31;56762;49.494;11.768;2022-09-11T12:05:30;18.68;72.21
69543;SHT31;56762;49.494;11.768;2022-09-11T12:07:59;18.72;71.84
69543;SHT31;56762;49.494;11.768;2022-09-11T12:10:30;18.77;70.22
69543;SHT31;56762;49.494;11.768;2022-09-11T12:13:01;18.75;69.97
69543;SHT31;56762;49.494;11.768;2022-09-11T12:15:30;18.63;70.63
69543;SHT31;56762;49.494;11.768;2022-09-11T12:18:02;18.65;70.78
69543;SHT31;56762;49.494;11.768;2022-09-11T12:20:35;18.60;71.65
69543;SHT31;56762;49.494;11.768;2022-09-11T12:23:06;18.53;72.18
69543;SHT31;56762;49.494;11.768;2022-09-11T12:25:50;18.47;74.20
69543;SHT31;56762;49.494;11.768;2022-09-11T12:28:29;18.48;73.60
69543;SHT31;56762;49.494;11.768;2022-09-11T12:31:01;18.44;72.74
69543;SHT31;56762;49.494;11.768;2022-09-11T12:34:02;18.41;74.10
69543;SHT31;56762;49.494;11.768;2022-09-11T12:36:35;18.41;74.28
69543;SHT31;56762;49.494;11.768;2022-09-11T12:39:27;18.25;77.05
69543;SHT31;56762;49.494;11.768;2022-09-11T12:45:18;18.20;78.38
69543;SHT31;56762;49.494;11.768;2022-09-11T12:47:52;18.10;78.75
69543;SHT31;56762;49.494;11.768;2022-09-11T12:50:21;18.08;78.92
69543;SHT31;56762;49.494;11.768;2022-09-11T12:52:54;18.08;80.06
69543;SHT31;56762;49.494;11.768;2022-09-11T12:55:31;18.14;79.15
69543;SHT31;56762;49.494;11.768;2022-09-11T12:58:01;18.17;78.53
69543;SHT31;56762;49.494;11.768;2022-09-11T13:00:34;18.21;77.11
69543;SHT31;56762;49.494;11.768;2022-09-11T13:03:05;18.18;76.89
69543;SHT31;56762;49.494;11.768;2022-09-11T13:05:35;18.20;77.13
69543;SHT31;56762;49.494;11.768;2022-09-11T13:08:12;18.25;77.21
69543;SHT31;56762;49.494;11.768;2022-09-11T13:10:41;18.29;76.25
69543;SHT31;56762;49.494;11.768;2022-09-11T13:13:37;18.32;76.79
69543;SHT31;56762;49.494;11.768;2022-09-11T13:16:16;18.35;76.41
69543;SHT31;56762;49.494;11.768;2022-09-11T13:18:44;18.41;76.47
69543;SHT31;56762;49.494;11.768;2022-09-11T13:21:14;18.49;76.04
69543;SHT31;56762;49.494;11.768;2022-09-11T13:23:44;18.51;74.15
69543;SHT31;56762;49.494;11.768;2022-09-11T13:26:26;18.56;74.61
69543;SHT31;56762;49.494;11.768;2022-09-11T13:28:58;18.58;73.20
69543;SHT31;56762;49.494;11.768;2022-09-11T13:31:31;18.59;72.05
69543;SHT31;56762;49.494;11.768;2022-09-11T13:34:04;18.56;71.74
69543;SHT31;56762;49.494;11.768;2022-09-11T13:36:34;18.66;71.55
69543;SHT31;56762;49.494;11.768;2022-09-11T13:39:04;18.66;71.87
69543;SHT31;56762;49.494;11.768;2022-09-11T13:41:35;18.68;72.07
69543;SHT31;56762;49.494;11.768;2022-09-11T13:44:09;18.77;71.56
69543;SHT31;56762;49.494;11.768;2022-09-11T13:46:48;18.70;72.01
69543;SHT31;56762;49.494;11.768;2022-09-11T13:49:27;18.75;72.12
69543;SHT31;56762;49.494;11.768;2022-09-11T13:51:57;18.80;70.91
69543;SHT31;56762;49.494;11.768;2022-09-11T13:54:29;18.86;70.80
69543;SHT31;56762;49.494;11.768;2022-09-11T13:57:11;18.85;71.05
69543;SHT31;56762;49.494;11.768;2022-09-11T13:59:44;18.79;71.50
69543;SHT31;56762;49.494;11.768;2022-09-11T14:05:18;18.62;73.72
69543;SHT31;56762;49.494;11.768;2022-09-11T14:07:54;18.49;75.77
69543;SHT31;56762;49.494;11.768;2022-09-11T14:10:26;18.31;76.49
69543;SHT31;56762;49.494;11.768;2022-09-11T14:13:00;18.21;77.06
69543;SHT31;56762;49.494;11.768;2022-09-11T14:15:34;18.14;78.87
69543;SHT31;56762;49.494;11.768;2022-09-11T14:18:12;18.07;80.30
69543;SHT31;56762;49.494;11.768;2022-09-11T14:20:44;17.97;80.45
69543;SHT31;56762;49.494;11.768;2022-09-11T14:23:17;17.96;81.10
69543;SHT31;56762;49.494;11.768;2022-09-11T14:26:05;17.89;81.71
69543;SHT31;56762;49.494;11.768;2022-09-11T14:28:35;17.89;81.94
69543;SHT31;56762;49.494;11.768;2022-09-11T14:31:08;17.90;81.06
69543;SHT31;56762;49.494;11.768;2022-09-11T14:33:37;17.86;80.55
69543;SHT31;56762;49.494;11.768;2022-09-11T14:36:12;17.83;79.68
69543;SHT31;56762;49.494;11.768;2022-09-11T14:38:42;17.80;78.86
69543;SHT31;56762;49.494;11.768;2022-09-11T14:41:12;17.79;78.16
69543;SHT31;56762;49.494;11.768;2022-09-11T14:43:40;17.80;79.47
69543;SHT31;56762;49.494;11.768;2022-09-11T14:46:10;17.83;80.52
69543;SHT31;56762;49.494;11.768;2022-09-11T14:48:37;17.90;80.75
69543;SHT31;56762;49.494;11.768;2022-09-11T14:51:10;17.94;81.13
69543;SHT31;56762;49.494;11.768;2022-09-11T14:53:39;17.91;81.32
69543;SHT31;56762;49.494;11.768;2022-09-11T14:56:09;17.89;81.53
69543;SHT31;56762;49.494;11.768;2022-09-11T14:58:38;17.87;80.90
69543;SHT31;56762;49.494;11.768;2022-09-11T15:01:05;17.83;81.29
69543;SHT31;56762;49.494;11.768;2022-09-11T15:03:33;17.79;81.72
69543;SHT31;56762;49.494;11.768;2022-09-11T15:06:01;17.74;81.67
69543;SHT31;56762;49.494;11.768;2022-09-11T15:08:29;17.73;81.12
69543;SHT31;56762;49.494;11.768;2022-09-11T15:10:56;17.69;81.68
69543;SHT31;56762;49.494;11.768;2022-09-11T15:13:24;17.66;81.12
69543;SHT31;56762;49.494;11.768;2022-09-11T15:15:54;17.63;81.06
69543;SHT31;56762;49.494;11.768;2022-09-11T15:18:22;17.59;82.11
69543;SHT31;56762;49.494;11.768;2022-09-11T15:20:49;17.56;82.58
69543;SHT31;56762;49.494;11.768;2022-09-11T15:23:17;17.51;83.57
69543;SHT31;56762;49.494;11.768;2022-09-11T15:25:45;17.45;83.34
69543;SHT31;56762;49.494;11.768;2022-09-11T15:28:12;17.45;83.50
69543;SHT31;56762;49.494;11.768;2022-09-11T15:30:40;17.45;82.17
69543;SHT31;56762;49.494;11.768;2022-09-11T15:33:09;17.46;82.01
69543;SHT31;56762;49.494;11.768;2022-09-11T15:35:37;17.42;81.84
69543;SHT31;56762;49.494;11.768;2022-09-11T15:38:04;17.45;81.37
69543;SHT31;56762;49.494;11.768;2022-09-11T15:40:33;17.40;80.92
69543;SHT31;56762;49.494;11.768;2022-09-11T15:43:01;17.42;80.58
69543;SHT31;56762;49.494;11.768;2022-09-11T15:45:29;17.36;81.57
69543;SHT31;56762;49.494;11.768;2022-09-11T15:47:57;17.33;80.81
69543;SHT31;56762;49.494;11.768;2022-09-11T15:50:26;17.28;80.82
69543;SHT31;56762;49.494;11.768;2022-09-11T15:52:56;17.23;81.08